Map

Track Data

SID SEASON NUMBER BASIN SUBBASIN NAME ISO_TIME NATURE LAT LON WMO_WIND WMO_PRES WMO_AGENCY TRACK_TYPE DIST2LAND LANDFALL IFLAG USA_AGENCY USA_ATCF_ID USA_LAT USA_LON USA_RECORD USA_STATUS USA_WIND USA_PRES USA_SSHS USA_R34_NE USA_R34_SE USA_R34_SW USA_R34_NW USA_R50_NE USA_R50_SE USA_R50_SW USA_R50_NW USA_R64_NE USA_R64_SE USA_R64_SW USA_R64_NW USA_POCI USA_ROCI USA_RMW USA_EYE TOKYO_LAT TOKYO_LON TOKYO_GRADE TOKYO_WIND TOKYO_PRES TOKYO_R50_DIR TOKYO_R50_LONG TOKYO_R50_SHORT TOKYO_R30_DIR TOKYO_R30_LONG TOKYO_R30_SHORT TOKYO_LAND CMA_LAT CMA_LON CMA_CAT CMA_WIND CMA_PRES HKO_LAT HKO_LON HKO_CAT HKO_WIND HKO_PRES NEWDELHI_LAT NEWDELHI_LON NEWDELHI_GRADE NEWDELHI_WIND NEWDELHI_PRES NEWDELHI_CI NEWDELHI_DP NEWDELHI_POCI REUNION_LAT REUNION_LON REUNION_TYPE REUNION_WIND REUNION_PRES REUNION_TNUM REUNION_CI REUNION_RMW REUNION_R34_NE REUNION_R34_SE REUNION_R34_SW REUNION_R34_NW REUNION_R50_NE REUNION_R50_SE REUNION_R50_SW REUNION_R50_NW REUNION_R64_NE REUNION_R64_SE REUNION_R64_SW REUNION_R64_NW BOM_LAT BOM_LON BOM_TYPE BOM_WIND BOM_PRES BOM_TNUM BOM_CI BOM_RMW BOM_R34_NE BOM_R34_SE BOM_R34_SW BOM_R34_NW BOM_R50_NE BOM_R50_SE BOM_R50_SW BOM_R50_NW BOM_R64_NE BOM_R64_SE BOM_R64_SW BOM_R64_NW BOM_ROCI BOM_POCI BOM_EYE BOM_POS_METHOD BOM_PRES_METHOD NADI_LAT NADI_LON NADI_CAT NADI_WIND NADI_PRES WELLINGTON_LAT WELLINGTON_LON WELLINGTON_WIND WELLINGTON_PRES DS824_LAT DS824_LON DS824_STAGE DS824_WIND DS824_PRES TD9636_LAT TD9636_LON TD9636_STAGE TD9636_WIND TD9636_PRES TD9635_LAT TD9635_LON TD9635_WIND TD9635_PRES TD9635_ROCI NEUMANN_LAT NEUMANN_LON NEUMANN_CLASS NEUMANN_WIND NEUMANN_PRES MLC_LAT MLC_LON MLC_CLASS MLC_WIND MLC_PRES USA_GUST BOM_GUST BOM_GUST_PER REUNION_GUST REUNION_GUST_PER USA_SEAHGT USA_SEARAD_NE USA_SEARAD_SE USA_SEARAD_SW USA_SEARAD_NW STORM_SPEED STORM_DIR
1980265N15283 1980 79 NA CS HERMINE 1980-09-20 12:00:00 TS 14.6000 -77.2000 25 1008 hurdat_atl main 346 338 O_____________ hurdat_atl AL131980 14.6000 -77.2000 TD 25 1008 -1 15 278
1980265N15283 1980 79 NA CS HERMINE 1980-09-20 15:00:00 TS 14.6979 -77.9474 main 343 343 P_____________ AL131980 14.6979 -77.9474 TD 25 1007 -1 15 278
1980265N15283 1980 79 NA CS HERMINE 1980-09-20 18:00:00 TS 14.8000 -78.7000 25 1007 hurdat_atl main 361 361 O_____________ hurdat_atl AL131980 14.8000 -78.7000 TD 25 1007 -1 15 278
1980265N15283 1980 79 NA CS HERMINE 1980-09-20 21:00:00 TS 14.9073 -79.4575 main 386 311 P_____________ AL131980 14.9073 -79.4575 TD 27 1006 -1 15 278
1980265N15283 1980 79 NA CS HERMINE 1980-09-21 00:00:00 TS 15.0000 -80.2000 30 1006 hurdat_atl main 311 236 O_____________ hurdat_atl AL131980 15.0000 -80.2000 TD 30 1006 -1 14 276
1980265N15283 1980 79 NA CS HERMINE 1980-09-21 03:00:00 TS 15.0497 -80.9077 main 236 161 P_____________ AL131980 15.0497 -80.9077 TD 32 1004 -1 14 274
1980265N15283 1980 79 NA CS HERMINE 1980-09-21 06:00:00 TS 15.1000 -81.6000 35 1003 hurdat_atl main 161 88 O_____________ hurdat_atl AL131980 15.1000 -81.6000 TS 35 1003 0 14 275
1980265N15283 1980 79 NA CS HERMINE 1980-09-21 09:00:00 TS 15.1699 -82.3152 main 88 35 P_____________ AL131980 15.1699 -82.3152 TS 37 1001 0 14 278
1980265N15283 1980 79 NA CS HERMINE 1980-09-21 12:00:00 TS 15.3000 -83.0000 40 1000 hurdat_atl main 35 11 O_____________ hurdat_atl AL131980 15.3000 -83.0000 TS 40 1000 0 13 285
1980265N15283 1980 79 NA CS HERMINE 1980-09-21 15:00:00 TS 15.5122 -83.6077 main 15 10 P_____________ AL131980 15.5122 -83.6077 TS 42 999 0 13 293
1980265N15283 1980 79 NA CS HERMINE 1980-09-21 18:00:00 TS 15.8000 -84.2000 45 998 hurdat_atl main 10 0 O_____________ hurdat_atl AL131980 15.8000 -84.2000 TS 45 998 0 14 298
1980265N15283 1980 79 NA CS HERMINE 1980-09-21 21:00:00 TS 16.1424 -84.8499 main 22 22 P_____________ AL131980 16.1424 -84.8499 TS 47 997 0 14 299
1980265N15283 1980 79 NA CS HERMINE 1980-09-22 00:00:00 TS 16.5000 -85.5000 50 996 hurdat_atl main 67 67 O_____________ hurdat_atl AL131980 16.5000 -85.5000 TS 50 996 0 14 298
1980265N15283 1980 79 NA CS HERMINE 1980-09-22 03:00:00 TS 16.7998 -86.1153 main 102 102 P_____________ AL131980 16.7998 -86.1153 TS 52 995 0 13 298
1980265N15283 1980 79 NA CS HERMINE 1980-09-22 06:00:00 TS 17.1000 -86.7000 55 995 hurdat_atl main 147 106 O_____________ hurdat_atl AL131980 17.1000 -86.7000 TS 55 995 0 13 301
1980265N15283 1980 79 NA CS HERMINE 1980-09-22 09:00:00 TS 17.4498 -87.2576 main 96 43 P_____________ AL131980 17.4498 -87.2576 TS 57 994 0 13 304
1980265N15283 1980 79 NA CS HERMINE 1980-09-22 12:00:00 TS 17.8000 -87.8000 60 994 hurdat_atl main 43 0 O_____________ hurdat_atl AL131980 17.8000 -87.8000 TS 60 994 0 12 303
1980265N15283 1980 79 NA NA HERMINE 1980-09-22 15:00:00 TS 18.1222 -88.3352 main 0 0 P_____________ AL131980 18.1222 -88.3352 TS 57 994 0 12 300
1980265N15283 1980 79 NA NA HERMINE 1980-09-22 18:00:00 TS 18.4000 -88.9000 55 994 hurdat_atl main 0 0 O_____________ hurdat_atl AL131980 18.4000 -88.9000 TS 55 994 0 13 293
1980265N15283 1980 79 NA NA HERMINE 1980-09-22 21:00:00 TS 18.6226 -89.5501 main 0 0 P_____________ AL131980 18.6226 -89.5501 TS 52 994 0 13 288
1980265N15283 1980 79 NA NA HERMINE 1980-09-23 00:00:00 TS 18.8000 -90.2000 50 995 hurdat_atl main 0 0 O_____________ hurdat_atl AL131980 18.8000 -90.2000 TS 50 995 0 12 287
1980265N15283 1980 79 NA NA HERMINE 1980-09-23 03:00:00 TS 18.9646 -90.7502 main 0 0 P_____________ AL131980 18.9646 -90.7502 TS 47 995 0 11 286
1980265N15283 1980 79 NA GM HERMINE 1980-09-23 06:00:00 TS 19.1000 -91.3000 45 995 hurdat_atl main 11 11 O_____________ hurdat_atl AL131980 19.1000 -91.3000 TS 45 995 0 12 282
1980265N15283 1980 79 NA GM HERMINE 1980-09-23 09:00:00 TS 19.2229 -91.9874 main 62 62 P_____________ AL131980 19.2229 -91.9874 TS 47 995 0 12 279
1980265N15283 1980 79 NA GM HERMINE 1980-09-23 12:00:00 TS 19.3000 -92.6000 50 995 hurdat_atl main 78 78 O_____________ hurdat_atl AL131980 19.3000 -92.6000 TS 50 995 0 9 276
1980265N15283 1980 79 NA GM HERMINE 1980-09-23 15:00:00 TS 19.3221 -92.9526 main 84 84 P_____________ AL131980 19.3221 -92.9526 TS 52 994 0 6 270
1980265N15283 1980 79 NA GM HERMINE 1980-09-23 18:00:00 TS 19.3000 -93.2000 55 994 hurdat_atl main 94 94 O_____________ hurdat_atl AL131980 19.3000 -93.2000 TS 55 994 0 5 265
1980265N15283 1980 79 NA GM HERMINE 1980-09-23 21:00:00 TS 19.2799 -93.4999 main 111 100 P_____________ AL131980 19.2799 -93.4999 TS 57 993 0 6 260
1980265N15283 1980 79 NA GM HERMINE 1980-09-24 00:00:00 TS 19.2000 -93.8000 60 993 hurdat_atl main 100 81 O_____________ hurdat_atl AL131980 19.2000 -93.8000 TS 60 993 0 6 246
1980265N15283 1980 79 NA GM HERMINE 1980-09-24 03:00:00 TS 19.0150 -94.1151 main 81 61 P_____________ AL131980 19.0150 -94.1151 TS 60 993 0 7 235
1980265N15283 1980 79 NA GM HERMINE 1980-09-24 06:00:00 TS 18.8000 -94.4000 60 993 hurdat_atl main 61 39 O_____________ hurdat_atl AL131980 18.8000 -94.4000 TS 60 993 0 6 233
1980265N15283 1980 79 NA GM HERMINE 1980-09-24 09:00:00 TS 18.6499 -94.6224 main 30 11 P_____________ AL131980 18.6499 -94.6224 TS 57 993 0 5 232
1980265N15283 1980 79 NA GM HERMINE 1980-09-24 12:00:00 TS 18.5000 -94.8000 55 994 hurdat_atl main 11 0 O_____________ hurdat_atl AL131980 18.5000 -94.8000 TS 55 994 0 5 222
1980265N15283 1980 79 NA NA HERMINE 1980-09-24 15:00:00 TS 18.3074 -94.9499 main 0 0 P_____________ AL131980 18.3074 -94.9499 TS 52 995 0 5 215
1980265N15283 1980 79 NA NA HERMINE 1980-09-24 18:00:00 TS 18.1000 -95.1000 50 997 hurdat_atl main 0 0 O_____________ hurdat_atl AL131980 18.1000 -95.1000 TS 50 997 0 5 219
1980265N15283 1980 79 NA NA HERMINE 1980-09-24 21:00:00 TS 17.9000 -95.3000 main 0 0 P_____________ AL131980 17.9000 -95.3000 TS 47 998 0 6 224
1980265N15283 1980 79 NA NA HERMINE 1980-09-25 00:00:00 TS 17.7000 -95.5000 45 1000 hurdat_atl main 0 0 O_____________ hurdat_atl AL131980 17.7000 -95.5000 TS 45 1000 0 5 220
1980265N15283 1980 79 NA NA HERMINE 1980-09-25 03:00:00 TS 17.4925 -95.6650 main 0 0 P_____________ AL131980 17.4925 -95.6650 TS 42 1001 0 5 215
1980265N15283 1980 79 NA NA HERMINE 1980-09-25 06:00:00 TS 17.3000 -95.8000 40 1003 hurdat_atl main 0 0 O_____________ hurdat_atl AL131980 17.3000 -95.8000 TS 40 1003 0 4 214
1980265N15283 1980 79 NA NA HERMINE 1980-09-25 09:00:00 TS 17.1200 -95.9225 main 0 0 P_____________ AL131980 17.1200 -95.9225 TS 37 1004 0 4 212
1980265N15283 1980 79 NA NA HERMINE 1980-09-25 12:00:00 TS 17.0000 -96.0000 35 1005 hurdat_atl main 0 0 O_____________ hurdat_atl AL131980 17.0000 -96.0000 TS 35 1005 0 2 212
1980265N15283 1980 79 NA NA HERMINE 1980-09-25 15:00:00 TS 16.9775 -96.0150 main 0 0 P_____________ AL131980 16.9775 -96.0150 TS 32 1006 -1 0 0
1980265N15283 1980 79 NA NA HERMINE 1980-09-25 18:00:00 TS 17.0000 -96.0000 30 1007 hurdat_atl main 0 0 O_____________ hurdat_atl AL131980 17.0000 -96.0000 TD 30 1007 -1 0 41
1980265N15283 1980 79 NA NA HERMINE 1980-09-25 21:00:00 TS 17.0075 -95.9950 main 0 0 P_____________ AL131980 17.0075 -95.9950 TD 27 1007 -1 0 0
1980265N15283 1980 79 NA NA HERMINE 1980-09-26 00:00:00 TS 17.0000 -96.0000 25 1008 hurdat_atl main 0 O_____________ hurdat_atl AL131980 17.0000 -96.0000 TD 25 1008 -1 0 0

About IBTrACS Database

This database is a web-friendly format of International Best Track Archive for Climate Stewardship (IBTrACS), a global best track data archive curated by NOAA dating back to 1842.

Updated: 2021-11-26